Información del aeropuerto LPPS

Información de pista
Pista 01 Longitud 0 ft Anchura 0 ft
Elevación 240 ft Umbral 0 ft Rumbo 0
Pista 19 Longitud 0 ft Anchura 0 ft
Elevación 341 ft Umbral 0 ft Rumbo 0
Pista 18 Longitud 9861 ft Anchura 148 ft
Elevación 240 ft Umbral 0 ft Rumbo 178
Pista 36 Longitud 9861 ft Anchura 148 ft
Elevación 338 ft Umbral 0 ft Rumbo 358
Frecuencias del aeropuerto
Tipo GCA Nombre GCA Frecuencia 123.3 MHZ
Tipo TWR Nombre TWR Frecuencia 118.4 MHZ
Radioayudas del aeropuerto
Tipo NDB Nombre Porto Santo Frecuencia 338 KHZ
Tipo VOR-DME Nombre Porto Santo Frecuencia 114900 KHZ
Tipo TACAN Nombre Porto Santo Frecuencia 116300 KHZ
Información meteorológica del aeropuerto y NOTAM
ADDS - METARS form results

(1011 UTC 19 April 2021)
Data provider http://aviationweather.gov/metar/data/
 
METAR text: LPPS 191000Z 01011KT 9999 FEW015 BKN030 19/14 Q1023
Conditions at: LPPS (PORTO SANTO ISLA, PT) observed 1000 UTC 19 April 2021
Temperature: 19.0°C (66°F)
Dewpoint: 14.0°C (57°F) [RH = 73%]
Pressure (altimeter): 30.21 inches Hg (1023.0 mb)
Winds: from the N (10 degrees) at 13 MPH (11 knots; 5.7 m/s)
Visibility: 6 or more miles (10+ km)
Ceiling: 3000 feet AGL
Clouds: few clouds at 1500 feet AGL
broken clouds at 3000 feet AGL
Weather: no significant weather observed at this time

METAR text: LPPS 190930Z 01010KT 340V040 9999 FEW015 19/14 Q1023
Conditions at: LPPS (PORTO SANTO ISLA, PT) observed 0930 UTC 19 April 2021
Temperature: 19.0°C (66°F)
Dewpoint: 14.0°C (57°F) [RH = 73%]
Pressure (altimeter): 30.21 inches Hg (1023.0 mb)
Winds: from the N (10 degrees) at 12 MPH (10 knots; 5.1 m/s)
Visibility: 6 or more miles (10+ km)
Ceiling: at least 12,000 feet AGL
Clouds: few clouds at 1500 feet AGL
Weather: no significant weather observed at this time

Forecast for: LPPS (PORTO SANTO ISLA, PT)
Text: TAF LPPS 190500Z 1906/2012 36010KT 9999 SCT015
Forecast period: 0600 UTC 19 April 2021 to 0000 UTC 20 April 2021
Forecast type: FROM: standard forecast or significant change
Winds: from the N (360 degrees) at 12 MPH (10 knots; 5.1 m/s)
Visibility: 6 or more miles (10+ km)
Ceiling: at least 12,000 feet AGL
Clouds: scattered clouds at 1500 feet AGL
Weather: no significant weather forecast for this period
Text: TEMPO 1917/1921 SCT012 BKN030
Forecast period: 1700 to 2100 UTC 19 April 2021
Forecast type: TEMPORARY: The following changes expected for less than half the time period
Visibility: missing
Ceiling: 3000 feet AGL
Clouds: scattered clouds at 1200 feet AGL
broken clouds at 3000 feet AGL
Weather: no significant weather forecast for this period
Text: BECMG 2000/2003 VRB05KT
Forecast period: 0000 to 1200 UTC 20 April 2021
Forecast type: BECOMING: Conditions expected to become as follows by 0300 UTC 20 April 2021
Winds: variable direction winds at 6 MPH (5 knots; 2.6 m/s)
Visibility: 6 or more miles (10+ km)
Ceiling: at least 12,000 feet AGL
Clouds: scattered clouds at 1500 feet AGL
Weather: no significant weather forecast for this period